Time;durP1;ratioP1;P1;durP2;ratioP2;P2;SDS_P1;SDS_P2;PMS_P1;PMS_P2;Temp;Humidity;BMP_temperature;BMP_pressure;BME280_temperature;BME280_humidity;BME280_pressure;Samples;Min_cycle;Max_cycle;Signal;HPM_P1;HPM_P2
2021/09/03 00:02:17;;;;;;;;;;;15.50;96.30;;;15.36;86.49;101258.88;5028759;28;19933;-67
2021/09/03 00:04:45;;;;;;;;;;;15.40;96.20;;;15.36;86.20;101262.44;5028385;28;20526;-68
2021/09/03 00:07:12;;;;;;;;;;;15.40;96.10;;;15.35;86.10;101265.41;5026799;28;19929;-68
2021/09/03 00:09:40;;;;;;;;;;;15.40;96.10;;;15.33;86.02;101262.03;5030610;28;19929;-68
2021/09/03 00:12:08;;;;;;;;;;;15.40;96.20;;;15.33;86.20;101256.53;5048609;28;20042;-68
2021/09/03 00:14:36;;;;;;;;;;;15.40;96.20;;;15.31;86.13;101264.13;5048202;28;19924;-68
2021/09/03 00:17:03;;;;;;;;;;;15.40;96.10;;;15.26;86.14;101259.22;5042203;28;19976;-68
2021/09/03 00:19:30;;;;;;;;;;;15.30;96.20;;;15.24;85.99;101253.91;5026869;28;19925;-68
2021/09/03 00:21:59;;;;;;;;;;;15.30;96.10;;;15.20;85.92;101252.63;5027753;28;20641;-68
2021/09/03 00:24:26;;;;;;;;;;;15.30;96.00;;;15.21;85.97;101251.59;5028574;28;19976;-68
2021/09/03 00:26:53;;;;;;;;;;;15.20;96.00;;;15.19;86.25;101261.91;5030948;28;19932;-68
2021/09/03 00:29:20;;;;;;;;;;;15.20;96.10;;;15.19;86.10;101258.28;5047952;28;20388;-69
2021/09/03 00:31:47;;;;;;;;;;;15.20;96.20;;;15.16;86.04;101259.53;5048201;28;20465;-68
2021/09/03 00:34:14;;;;;;;;;;;15.20;96.20;;;15.16;85.85;101253.22;5048072;28;20501;-68
2021/09/03 00:36:41;;;;;;;;;;;15.20;96.00;;;15.14;85.96;101250.66;5027147;28;19957;-68
2021/09/03 00:39:10;;;;;;;;;;;15.20;96.10;;;15.14;85.71;101250.66;5027276;28;20395;-68
2021/09/03 00:41:37;;;;;;;;;;;15.20;96.10;;;15.11;85.74;101247.47;5027836;28;20468;-68
2021/09/03 00:44:04;;;;;;;;;;;15.10;96.10;;;15.10;85.75;101249.38;5026670;22;19930;-66
2021/09/03 00:46:33;;;;;;;;;;;15.10;96.10;;;15.10;85.81;101248.50;5004958;28;20666;-64
2021/09/03 00:49:01;;;;;;;;;;;15.10;96.00;;;15.07;85.63;101243.44;5003306;28;19933;-64
2021/09/03 00:51:28;;;;;;;;;;;15.10;96.10;;;15.06;85.68;101237.09;4991445;28;19930;-64
2021/09/03 00:53:55;;;;;;;;;;;15.10;96.10;;;15.08;85.67;101242.38;4973495;28;19930;-64
2021/09/03 00:56:24;;;;;;;;;;;15.00;96.00;;;15.03;85.69;101235.59;4991343;28;19930;-64
2021/09/03 00:58:51;;;;;;;;;;;15.00;96.00;;;15.01;85.71;101243.16;5006044;28;19976;-64
2021/09/03 01:01:20;;;;;;;;;;;15.00;96.10;;;14.99;85.81;101241.66;5011287;28;19929;-64
2021/09/03 01:03:47;;;;;;;;;;;15.00;96.20;;;14.98;85.48;101245.44;5012306;28;19930;-64
2021/09/03 01:06:15;;;;;;;;;;;15.00;96.20;;;14.97;85.54;101238.28;5008838;28;19934;-65
2021/09/03 01:08:42;;;;;;;;;;;15.00;96.10;;;14.98;85.53;101245.44;5011248;28;19930;-66
2021/09/03 01:11:09;;;;;;;;;;;14.90;96.00;;;14.92;85.45;101238.84;5012446;28;19929;-66
2021/09/03 01:13:38;;;;;;;;;;;14.90;96.20;;;14.92;85.57;101235.25;5012556;28;19932;-65
2021/09/03 01:16:05;;;;;;;;;;;14.90;96.30;;;14.90;85.90;101237.34;5008020;28;20427;-66
2021/09/03 01:18:32;;;;;;;;;;;14.90;96.40;;;14.92;85.70;101238.84;4989883;28;19929;-66
2021/09/03 01:20:59;;;;;;;;;;;14.90;96.20;;;14.94;85.31;101244.13;4992125;28;19929;-65
2021/09/03 01:23:28;;;;;;;;;;;14.90;96.10;;;14.87;85.23;101238.59;4990856;28;19932;-65
2021/09/03 01:25:55;;;;;;;;;;;14.90;96.10;;;14.84;85.41;101234.34;4991151;28;19929;-66
2021/09/03 01:28:22;;;;;;;;;;;14.80;96.20;;;14.84;85.27;101231.59;4975186;28;20402;-66
2021/09/03 01:30:50;;;;;;;;;;;14.80;96.10;;;14.80;85.31;101233.03;4991230;28;19936;-64
2021/09/03 01:33:17;;;;;;;;;;;14.80;96.10;;;14.80;85.34;101223.97;4991244;28;20004;-65
2021/09/03 01:35:44;;;;;;;;;;;14.80;96.10;;;14.77;85.48;101229.84;4973892;28;19937;-64
2021/09/03 01:38:11;;;;;;;;;;;14.80;96.10;;;14.76;85.44;101226.25;5004962;28;19925;-64
2021/09/03 01:40:40;;;;;;;;;;;14.80;96.30;;;14.74;85.44;101227.50;5011378;28;19956;-64
2021/09/03 01:43:07;;;;;;;;;;;14.70;96.30;;;14.72;85.45;101219.47;4998176;28;19977;-64
2021/09/03 01:45:34;;;;;;;;;;;14.70;96.40;;;14.71;85.45;101223.25;4973952;28;19934;-64
2021/09/03 01:48:01;;;;;;;;;;;14.70;96.30;;;14.72;85.40;101224.97;5004787;28;19930;-64
2021/09/03 01:50:28;;;;;;;;;;;14.70;96.30;;;14.71;85.43;101215.03;5009812;28;19933;-66
2021/09/03 01:52:55;;;;;;;;;;;14.70;96.20;;;14.70;85.43;101217.94;5011097;28;20083;-65
2021/09/03 01:55:23;;;;;;;;;;;14.70;96.30;;;14.70;85.02;101220.69;5011147;28;19929;-65
2021/09/03 01:57:51;;;;;;;;;;;14.70;96.20;;;14.67;85.17;101219.19;5006290;28;19969;-68
2021/09/03 02:00:19;;;;;;;;;;;14.70;96.20;;;14.64;85.20;101206.75;5010257;28;19930;-67
2021/09/03 02:02:46;;;;;;;;;;;14.60;96.10;;;14.61;85.19;101207.13;4996668;28;19976;-67
2021/09/03 02:05:13;;;;;;;;;;;14.60;96.00;;;14.61;85.10;101200.81;4990127;28;19941;-66
2021/09/03 02:07:40;;;;;;;;;;;14.60;96.00;;;14.59;84.97;101197.41;4990303;28;19969;-67
2021/09/03 02:10:09;;;;;;;;;;;14.60;96.10;;;14.56;85.24;101204.09;4972659;28;19937;-68
2021/09/03 02:12:36;;;;;;;;;;;14.60;96.10;;;14.54;85.08;101197.94;4990538;28;20409;-67
2021/09/03 02:15:06;;;;;;;;;;;14.60;96.20;;;14.55;85.07;101193.34;4989574;28;20696;-67
2021/09/03 02:17:33;;;;;;;;;;;14.50;96.00;;;14.54;85.12;101194.38;4988234;28;19930;-67
2021/09/03 02:20:00;;;;;;;;;;;14.50;96.10;;;14.52;84.80;101197.31;4989877;28;19929;-67
2021/09/03 02:22:28;;;;;;;;;;;14.50;96.10;;;14.48;85.04;101196.00;4978114;28;19930;-66
2021/09/03 02:24:55;;;;;;;;;;;14.50;96.10;;;14.50;84.83;101198.53;4979946;28;19930;-68
2021/09/03 02:27:22;;;;;;;;;;;14.50;96.10;;;14.51;84.80;101195.63;4987571;28;19980;-66
2021/09/03 02:29:49;;;;;;;;;;;14.40;96.00;;;14.50;84.75;101193.91;4990118;28;19960;-65
2021/09/03 02:32:20;;;;;;;;;;;14.40;96.20;;;14.45;84.78;101193.66;4989650;28;19954;-65
2021/09/03 02:34:47;;;;;;;;;;;14.40;96.20;;;14.44;84.80;101195.53;4989256;28;20126;-65
2021/09/03 02:37:15;;;;;;;;;;;14.40;96.20;;;14.42;84.87;101192.13;4997103;28;20348;-65
2021/09/03 02:39:42;;;;;;;;;;;14.40;96.20;;;14.41;84.87;101195.94;4977396;28;19965;-66
2021/09/03 02:42:09;;;;;;;;;;;14.40;96.10;;;14.41;84.83;101186.84;4989752;28;19934;-65
2021/09/03 02:44:37;;;;;;;;;;;14.30;96.10;;;14.39;84.80;101192.53;4989080;28;19937;-65
2021/09/03 02:47:05;;;;;;;;;;;14.30;96.00;;;14.37;84.69;101189.13;4997283;28;19929;-66
2021/09/03 02:49:33;;;;;;;;;;;14.30;96.20;;;14.36;84.63;101187.44;5012695;28;20027;-67
2021/09/03 02:52:00;;;;;;;;;;;14.30;96.10;;;14.35;84.87;101188.47;5012177;28;20456;-66
2021/09/03 02:54:28;;;;;;;;;;;14.30;96.30;;;14.35;84.65;101180.25;4993957;28;20325;-65
2021/09/03 02:56:55;;;;;;;;;;;14.30;96.30;;;14.34;84.65;101183.22;5004572;28;20044;-66
2021/09/03 02:59:22;;;;;;;;;;;14.30;96.20;;;14.32;84.80;101175.19;5010235;28;19925;-67
2021/09/03 03:01:49;;;;;;;;;;;14.30;96.20;;;14.32;84.62;101177.91;5012374;28;19980;-66
2021/09/03 03:04:16;;;;;;;;;;;14.20;96.20;;;14.30;84.48;101171.78;5012453;28;20661;-69
2021/09/03 03:06:45;;;;;;;;;;;14.20;96.20;;;14.27;84.76;101169.44;5006149;28;19930;-67
2021/09/03 03:09:12;;;;;;;;;;;14.20;96.30;;;14.26;84.67;101167.75;5012810;28;19929;-69
2021/09/03 03:11:39;;;;;;;;;;;14.20;96.20;;;14.25;84.61;101160.56;4995568;28;20449;-67
2021/09/03 03:14:11;;;;;;;;;;;14.20;96.10;;;14.20;84.86;101166.63;5012606;28;20710;-68
2021/09/03 03:16:38;;;;;;;;;;;14.20;96.30;;;14.20;84.70;101160.28;5007660;28;19934;-66
2021/09/03 03:19:05;;;;;;;;;;;14.20;96.20;;;14.20;84.59;101154.81;5013378;28;19933;-66
2021/09/03 03:21:33;;;;;;;;;;;14.10;96.10;;;14.17;84.68;101150.56;5013188;28;20024;-66
2021/09/03 03:24:02;;;;;;;;;;;14.10;96.20;;;14.18;84.61;101151.41;5012475;28;19987;-67
2021/09/03 03:26:29;;;;;;;;;;;14.10;96.30;;;14.15;84.73;101143.59;5006573;28;20393;-66
2021/09/03 03:28:56;;;;;;;;;;;14.10;96.30;;;14.14;84.68;101152.84;5012400;28;19984;-66
2021/09/03 03:31:23;;;;;;;;;;;14.10;96.40;;;14.14;84.73;101147.38;5012629;28;19948;-65
2021/09/03 03:33:50;;;;;;;;;;;14.10;96.30;;;14.14;84.62;101150.94;5011928;28;19988;-65
2021/09/03 03:36:17;;;;;;;;;;;14.10;96.40;;;14.13;84.53;101145.69;5005554;28;20028;-66
2021/09/03 03:38:44;;;;;;;;;;;14.10;96.30;;;14.08;84.56;101144.34;5005146;28;19948;-67
2021/09/03 03:41:13;;;;;;;;;;;14.10;96.20;;;14.11;84.38;101142.28;5012242;28;19965;-67
2021/09/03 03:43:40;;;;;;;;;;;14.00;96.10;;;14.12;84.17;101147.56;4985783;28;19934;-66
2021/09/03 03:46:12;;;;;;;;;;;14.00;96.10;;;14.08;84.34;101141.63;4989998;28;20270;-66
2021/09/03 03:48:47;;;;;;;;;;;14.00;96.20;;;14.05;84.54;101143.88;5011270;28;19929;-68
2021/09/03 03:51:33;;;;;;;;;;;14.00;96.10;;;14.04;84.48;101140.31;5010874;28;20387;-68
2021/09/03 03:54:00;;;;;;;;;;;14.00;96.20;;;14.05;84.16;101144.75;5009721;28;20409;-67
2021/09/03 03:56:28;;;;;;;;;;;14.00;96.20;;;14.03;84.53;101144.09;4991922;28;19953;-65
2021/09/03 03:58:58;;;;;;;;;;;13.90;96.10;;;14.00;84.22;101138.16;5009062;28;19976;-67
2021/09/03 04:01:46;;;;;;;;;;;13.90;96.10;;;13.98;84.06;101134.78;5013950;28;20397;-67
2021/09/03 04:04:15;;;;;;;;;;;13.90;96.10;;;13.93;84.64;101132.59;5013121;28;19930;-68
2021/09/03 04:06:43;;;;;;;;;;;13.90;96.30;;;13.93;84.35;101129.03;5005512;28;19932;-66
2021/09/03 04:09:25;;;;;;;;;;;13.90;96.10;;;13.92;84.37;101125.44;5012308;28;19929;-67
2021/09/03 04:11:58;;;;;;;;;;;13.90;96.30;;;13.92;84.64;101122.72;5013904;28;19930;-66
2021/09/03 04:14:25;;;;;;;;;;;13.90;96.30;;;13.93;84.36;101115.34;5012400;28;19936;-68
2021/09/03 04:16:52;;;;;;;;;;;13.90;96.20;;;13.92;84.39;101127.31;5001295;28;20360;-68
2021/09/03 04:19:19;;;;;;;;;;;13.90;96.20;;;13.89;84.38;101125.81;4992869;28;19930;-68
2021/09/03 04:21:46;;;;;;;;;;;13.90;96.30;;;13.87;84.50;101117.78;4992504;28;19929;-66
2021/09/03 04:24:14;;;;;;;;;;;13.80;96.40;;;13.84;84.59;101114.59;4990210;28;19930;-65
2021/09/03 04:26:43;;;;;;;;;;;13.80;96.30;;;13.85;84.84;101119.03;4978510;28;19929;-68
2021/09/03 04:29:11;;;;;;;;;;;13.80;96.40;;;13.82;84.75;101109.31;4991345;28;19936;-71
2021/09/03 04:31:39;;;;;;;;;;;13.80;96.50;;;13.83;84.92;101113.75;4992717;28;19965;-69
2021/09/03 04:34:18;;;;;;;;;;;13.80;96.50;;;13.84;84.55;101120.06;4991676;28;20468;-68
2021/09/03 04:36:51;;;;;;;;;;;13.80;96.40;;;13.81;84.75;101110.34;4990219;28;20005;-70
2021/09/03 04:39:18;;;;;;;;;;;13.80;96.30;;;13.82;84.69;101119.41;4991874;28;19933;-69
2021/09/03 04:41:45;;;;;;;;;;;13.80;96.40;;;13.81;84.76;101117.72;4991907;28;20369;-70
2021/09/03 04:44:14;;;;;;;;;;;13.80;96.50;;;13.77;85.00;101121.88;4992023;28;19930;-69
2021/09/03 04:50:12;;;;;;;;;;;13.80;96.60;;;13.80;85.09;101116.00;4910605;29;19931;-71
2021/09/03 04:52:48;;;;;;;;;;;13.80;96.60;;;13.81;84.91;101113.09;4984536;28;19955;-69
2021/09/03 04:55:24;;;;;;;;;;;13.80;96.40;;;13.80;84.70;101116.88;4989624;28;19930;-69
2021/09/03 04:58:05;;;;;;;;;;;13.80;96.40;;;13.80;84.70;101116.88;4990550;28;20409;-69
2021/09/03 05:07:53;;;;;;;;;;;13.80;96.20;;;13.76;84.79;101109.22;4925091;28;20052;-68
2021/09/03 05:10:20;;;;;;;;;;;13.80;96.10;;;13.78;84.95;101108.00;4949020;29;19937;-68
2021/09/03 05:12:59;;;;;;;;;;;13.90;96.40;;;13.78;84.91;101101.69;4948711;29;19931;-70
2021/09/03 05:15:32;;;;;;;;;;;13.90;96.50;;;13.78;85.02;101101.69;4929842;29;19934;-69
2021/09/03 05:18:17;;;;;;;;;;;13.90;96.40;;;13.78;84.96;101109.88;4929831;29;19986;-69
2021/09/03 05:24:15;;;;;;;;;;;13.90;96.20;;;13.76;85.60;101103.75;4908507;29;19986;-69
2021/09/03 05:26:42;;;;;;;;;;;14.00;96.10;;;13.77;85.70;101108.19;4929426;29;19953;-70
2021/09/03 05:36:54;;;;;;;;;;;14.00;96.00;;;13.81;86.10;101112.25;4790753;29;19933;-65
2021/09/03 05:39:21;;;;;;;;;;;14.20;96.10;;;13.83;86.20;101116.47;4828912;29;20421;-64
2021/09/03 05:41:48;;;;;;;;;;;14.20;96.20;;;13.83;86.70;101108.28;4866075;29;19932;-65
2021/09/03 05:44:15;;;;;;;;;;;14.30;96.20;;;13.87;86.96;101119.69;4914237;29;19938;-66
2021/09/03 05:47:00;;;;;;;;;;;14.30;96.40;;;13.88;87.55;101118.66;4948003;28;19930;-64
2021/09/03 06:32:20;;;;;;;;;;;15.40;96.90;;;14.42;91.79;101109.97;5025926;28;19951;-66
2021/09/03 06:34:49;;;;;;;;;;;15.50;97.00;;;14.46;92.72;101107.69;5030811;28;19933;-66
2021/09/03 06:37:17;;;;;;;;;;;15.60;96.80;;;14.52;92.77;101108.81;5031489;22;19937;-67
2021/09/03 06:39:45;;;;;;;;;;;15.70;96.50;;;14.56;93.19;101112.84;5018409;28;20667;-66
2021/09/03 06:42:13;;;;;;;;;;;15.70;96.60;;;14.58;93.01;101119.88;5028232;28;19936;-67
2021/09/03 06:44:40;;;;;;;;;;;15.80;96.00;;;14.65;93.65;101115.28;5025419;28;19975;-66
2021/09/03 06:47:08;;;;;;;;;;;15.90;96.60;;;14.70;94.05;101111.97;4996942;28;20079;-68
2021/09/03 06:49:36;;;;;;;;;;;16.00;96.80;;;14.77;93.33;101107.38;4990645;28;19929;-67
2021/09/03 06:52:05;;;;;;;;;;;16.10;95.80;;;14.82;94.08;101104.91;5010071;28;19926;-68
2021/09/03 06:54:33;;;;;;;;;;;16.20;96.10;;;14.89;94.55;101104.09;5007182;28;19973;-68
2021/09/03 06:57:00;;;;;;;;;;;16.30;96.20;;;14.95;94.69;101103.31;5010031;28;20447;-68
2021/09/03 06:59:28;;;;;;;;;;;16.40;95.80;;;15.00;94.57;101112.66;5005550;28;20607;-68
2021/09/03 07:01:55;;;;;;;;;;;16.50;95.60;;;15.05;95.32;101114.78;5004901;28;20055;-68
2021/09/03 07:04:22;;;;;;;;;;;16.70;95.80;;;15.11;95.67;101113.13;5009379;28;19929;-68
2021/09/03 07:06:51;;;;;;;;;;;16.70;95.90;;;15.17;95.20;101113.19;5010250;28;20028;-68
2021/09/03 07:09:18;;;;;;;;;;;16.80;95.30;;;15.22;95.22;101099.72;5010564;28;20480;-68
2021/09/03 07:11:45;;;;;;;;;;;16.90;94.90;;;15.28;95.82;101108.19;5010146;28;20397;-68
2021/09/03 07:14:12;;;;;;;;;;;17.00;95.30;;;15.33;94.63;101106.53;5009965;28;20348;-68
2021/09/03 07:16:39;;;;;;;;;;;17.00;94.10;;;15.39;95.00;101104.88;5008470;28;19984;-68
2021/09/03 07:19:07;;;;;;;;;;;17.10;94.50;;;15.47;95.22;101101.97;4978490;28;21319;-68
2021/09/03 07:21:34;;;;;;;;;;;17.20;94.50;;;15.50;94.35;101101.56;5001929;28;20021;-68
2021/09/03 07:24:03;;;;;;;;;;;17.30;93.60;;;15.57;93.81;101101.59;4997211;28;19937;-68
2021/09/03 07:26:31;;;;;;;;;;;17.40;93.00;;;15.61;94.31;101098.25;5004102;28;19963;-68
2021/09/03 07:28:58;;;;;;;;;;;17.40;93.20;;;15.70;94.14;101101.66;5000998;28;20052;-68
2021/09/03 07:31:26;;;;;;;;;;;17.60;93.10;;;15.76;94.57;101100.03;4989491;28;20483;-68
2021/09/03 07:33:53;;;;;;;;;;;17.70;93.10;;;15.81;94.65;101092.88;4999130;28;19937;-68
2021/09/03 07:36:20;;;;;;;;;;;17.70;93.10;;;15.87;94.17;101099.44;4997531;28;20306;-68
2021/09/03 07:38:47;;;;;;;;;;;17.80;92.50;;;15.94;94.63;101108.56;4999219;28;19972;-68
2021/09/03 07:41:16;;;;;;;;;;;17.90;92.40;;;16.00;95.64;101099.50;4996944;28;19933;-68
2021/09/03 07:43:43;;;;;;;;;;;18.00;93.20;;;16.06;95.47;101099.72;4996295;28;19934;-68
2021/09/03 07:46:10;;;;;;;;;;;18.10;92.50;;;16.16;96.74;101094.66;5008952;28;19979;-68
2021/09/03 07:48:37;;;;;;;;;;;18.20;93.00;;;16.23;95.86;101103.78;4999628;28;19937;-68
2021/09/03 07:51:04;;;;;;;;;;;18.30;92.40;;;16.33;96.99;101092.38;4993002;28;19989;-68
2021/09/03 07:53:31;;;;;;;;;;;18.40;92.60;;;16.37;96.31;101090.91;5003643;28;19925;-68
2021/09/03 07:55:59;;;;;;;;;;;18.50;92.30;;;16.38;95.17;101092.63;5008320;28;19951;-68
2021/09/03 07:58:28;;;;;;;;;;;18.60;91.20;;;16.46;95.74;101094.31;5009131;28;19925;-68
2021/09/03 08:00:55;;;;;;;;;;;18.60;91.40;;;16.50;95.52;101090.09;5008702;28;20556;-68
2021/09/03 08:03:22;;;;;;;;;;;18.70;91.40;;;16.61;95.77;101083.97;5007688;28;19941;-67
2021/09/03 08:05:49;;;;;;;;;;;18.80;91.40;;;16.66;96.42;101088.81;5008554;28;19975;-68
2021/09/03 08:08:16;;;;;;;;;;;18.90;91.10;;;16.76;96.31;101084.59;4993981;28;19925;-68
2021/09/03 08:10:44;;;;;;;;;;;18.90;91.50;;;16.87;95.40;101087.78;4994016;28;19929;-68
2021/09/03 08:13:12;;;;;;;;;;;19.00;91.10;;;16.90;95.78;101095.63;4992677;28;19976;-68
2021/09/03 08:15:41;;;;;;;;;;;19.10;91.10;;;17.02;96.54;101090.31;4982808;28;19941;-68
2021/09/03 08:18:09;;;;;;;;;;;19.20;91.60;;;17.10;96.01;101084.63;4998227;28;19980;-68
2021/09/03 08:20:36;;;;;;;;;;;19.30;91.30;;;17.14;94.23;101081.22;4999690;28;20389;-66
2021/09/03 08:23:04;;;;;;;;;;;19.30;90.00;;;17.19;94.21;101083.31;5001995;28;20678;-68
2021/09/03 08:25:32;;;;;;;;;;;19.40;90.00;;;17.25;94.14;101087.97;5004328;28;19925;-66
2021/09/03 08:27:59;;;;;;;;;;;19.40;90.00;;;17.34;95.71;101088.56;4990131;28;20425;-66
2021/09/03 08:30:26;;;;;;;;;;;19.50;90.90;;;17.37;94.26;101079.91;5007754;28;19933;-66
2021/09/03 08:32:55;;;;;;;;;;;19.60;89.80;;;17.47;96.67;101087.72;5007360;28;20048;-65
2021/09/03 08:35:23;;;;;;;;;;;19.70;91.20;;;17.50;95.48;101079.03;5008410;28;20415;-65
2021/09/03 08:37:51;;;;;;;;;;;19.80;90.50;;;17.55;95.27;101085.56;5007809;28;19935;-66
2021/09/03 08:40:18;;;;;;;;;;;19.80;90.20;;;17.58;94.16;101076.03;4989511;28;19941;-65
2021/09/03 08:42:46;;;;;;;;;;;19.80;89.30;;;17.62;93.27;101077.28;4998669;28;19930;-65
2021/09/03 08:45:15;;;;;;;;;;;19.90;88.70;;;17.64;92.42;101074.31;5008263;28;20000;-65
2021/09/03 08:47:43;;;;;;;;;;;19.90;88.10;;;17.65;91.31;101081.50;5009175;28;19952;-65
2021/09/03 08:50:14;;;;;;;;;;;19.90;86.90;;;17.68;91.41;101081.06;5010236;28;19929;-66
2021/09/03 08:52:43;;;;;;;;;;;20.00;87.50;;;17.81;90.24;101071.91;5010770;28;19930;-66
2021/09/03 08:55:11;;;;;;;;;;;20.00;87.10;;;17.89;91.71;101079.94;5010021;28;20023;-66
2021/09/03 08:57:38;;;;;;;;;;;20.00;88.20;;;17.89;90.19;101079.94;5010501;28;19929;-66
2021/09/03 09:00:14;;;;;;;;;;;20.10;86.80;;;17.94;91.17;101080.16;5009445;28;19926;-66
2021/09/03 09:02:58;;;;;;;;;;;20.10;87.50;;;17.97;89.09;101080.56;5009255;28;19929;-65
2021/09/03 09:05:48;;;;;;;;;;;20.10;86.50;;;18.02;89.50;101087.31;4991769;28;20312;-67
2021/09/03 09:08:16;;;;;;;;;;;20.20;86.30;;;18.08;88.45;101078.16;5010957;28;19929;-65
2021/09/03 09:10:48;;;;;;;;;;;20.20;86.10;;;18.10;87.65;101085.13;5010462;28;20356;-65
2021/09/03 09:13:16;;;;;;;;;;;20.30;85.50;;;18.13;87.30;101084.69;5008958;28;19972;-66
2021/09/03 09:15:56;;;;;;;;;;;20.30;85.00;;;18.08;87.53;101086.41;4992781;28;19955;-66
2021/09/03 09:18:32;;;;;;;;;;;20.30;84.90;;;18.10;86.53;101084.28;5010200;28;20393;-66
2021/09/03 09:21:09;;;;;;;;;;;20.30;84.70;;;18.11;86.44;101081.31;5009823;28;19987;-66
2021/09/03 09:23:44;;;;;;;;;;;20.30;84.40;;;18.12;86.16;101083.00;5009305;28;19933;-65
2021/09/03 09:26:12;;;;;;;;;;;20.30;84.00;;;18.15;86.57;101081.72;4991965;28;19929;-66
2021/09/03 09:28:39;;;;;;;;;;;20.30;84.60;;;18.18;86.20;101086.78;4990120;28;19930;-65
2021/09/03 09:31:07;;;;;;;;;;;20.40;84.30;;;18.25;86.57;101082.06;5008027;28;19937;-66
2021/09/03 09:33:34;;;;;;;;;;;20.30;84.70;;;18.30;85.79;101081.44;5005882;28;19930;-66
2021/09/03 09:36:03;;;;;;;;;;;20.40;84.20;;;18.32;85.06;101071.84;5008165;28;19930;-66
2021/09/03 09:38:33;;;;;;;;;;;20.50;83.70;;;18.38;86.16;101075.63;5007939;28;19936;-66
2021/09/03 09:41:02;;;;;;;;;;;20.50;84.20;;;18.48;87.05;101075.13;5007572;28;20019;-65
2021/09/03 09:43:32;;;;;;;;;;;20.60;84.70;;;18.57;85.68;101057.25;5006697;28;19956;-66
2021/09/03 09:46:17;;;;;;;;;;;20.70;84.30;;;18.52;85.35;101063.47;5006673;28;20363;-66
2021/09/03 09:48:57;;;;;;;;;;;20.70;83.90;;;18.59;86.59;101063.41;5006653;28;19930;-66
2021/09/03 09:51:26;;;;;;;;;;;20.70;84.40;;;18.62;84.73;101062.09;5007766;28;20459;-65
2021/09/03 09:53:56;;;;;;;;;;;20.80;83.40;;;18.60;83.52;101056.81;5007949;28;20319;-66
2021/09/03 09:56:25;;;;;;;;;;;20.80;82.70;;;18.59;83.88;101048.78;5011661;28;20336;-66
2021/09/03 09:58:53;;;;;;;;;;;20.80;82.40;;;18.56;83.80;101044.53;5012072;28;20643;-65
2021/09/03 10:01:21;;;;;;;;;;;20.80;82.30;;;18.63;84.01;101047.25;4994083;28;19930;-66
2021/09/03 10:03:49;;;;;;;;;;;20.90;82.50;;;18.72;84.83;101043.97;5011754;28;19925;-66
2021/09/03 10:06:17;;;;;;;;;;;20.90;83.40;;;18.69;82.31;101047.19;5012034;28;20714;-66
2021/09/03 10:08:46;;;;;;;;;;;20.90;81.30;;;18.72;84.33;101038.47;5012676;28;19956;-66
2021/09/03 10:11:16;;;;;;;;;;;20.90;83.00;;;18.73;82.38;101042.06;5012477;28;19925;-66
2021/09/03 10:13:43;;;;;;;;;;;20.90;80.90;;;18.77;81.96;101035.03;5011601;28;19929;-66
2021/09/03 10:16:10;;;;;;;;;;;21.00;81.20;;;18.84;80.96;101040.53;5011897;28;19938;-66
2021/09/03 10:18:38;;;;;;;;;;;21.00;80.50;;;18.85;80.73;101039.44;5012060;28;19937;-66
2021/09/03 10:21:06;;;;;;;;;;;21.00;80.40;;;18.90;81.10;101036.84;5011837;28;20029;-66
2021/09/03 10:23:54;;;;;;;;;;;21.00;80.80;;;18.95;80.85;101025.97;5011246;28;20377;-65
2021/09/03 10:26:26;;;;;;;;;;;21.00;80.30;;;18.97;80.35;101034.88;5011462;28;19929;-66
2021/09/03 10:29:16;;;;;;;;;;;21.10;80.20;;;18.96;79.81;101024.91;5012085;28;19975;-65
2021/09/03 10:32:21;;;;;;;;;;;21.10;79.40;;;18.99;79.71;101031.91;5011541;28;19976;-66
2021/09/03 10:34:54;;;;;;;;;;;21.20;79.60;;;19.00;78.09;101023.41;5011345;28;19929;-66
2021/09/03 10:37:25;;;;;;;;;;;21.20;78.40;;;19.21;78.90;101024.88;4993539;28;19926;-66
2021/09/03 10:39:54;;;;;;;;;;;21.20;79.50;;;19.18;78.74;101018.97;5011392;28;20003;-66
2021/09/03 10:42:45;;;;;;;;;;;21.20;78.90;;;19.11;78.21;101016.25;5011530;28;19953;-66
2021/09/03 10:45:14;;;;;;;;;;;21.20;78.20;;;19.11;77.92;101019.88;5007442;28;20336;-66
2021/09/03 10:47:42;;;;;;;;;;;21.20;78.00;;;19.11;78.77;101022.66;5010883;28;20372;-66
2021/09/03 10:50:11;;;;;;;;;;;21.30;78.60;;;19.17;77.54;101022.78;5010711;28;20004;-66
2021/09/03 10:52:39;;;;;;;;;;;21.30;77.90;;;19.18;77.55;101013.44;5011433;28;20019;-66
2021/09/03 10:55:09;;;;;;;;;;;21.30;77.70;;;19.17;77.28;101017.25;4993172;28;19929;-66
2021/09/03 10:57:59;;;;;;;;;;;21.30;77.40;;;19.12;77.54;101010.50;4993492;28;20052;-66
2021/09/03 11:00:26;;;;;;;;;;;21.30;77.50;;;19.19;77.44;101004.06;5002395;28;20385;-66
2021/09/03 11:02:53;;;;;;;;;;;21.30;77.50;;;19.18;76.31;101005.16;5010804;28;19930;-66
2021/09/03 11:05:23;;;;;;;;;;;21.40;76.60;;;19.30;77.92;100995.88;5010097;28;19929;-66
2021/09/03 11:07:50;;;;;;;;;;;21.40;77.90;;;19.29;77.09;101001.63;5010577;28;20001;-66
2021/09/03 11:10:18;;;;;;;;;;;21.40;77.10;;;19.33;77.73;101000.09;5011127;28;19933;-66
2021/09/03 11:12:49;;;;;;;;;;;21.50;77.40;;;19.38;78.06;101002.16;5010751;28;20032;-66
2021/09/03 11:15:18;;;;;;;;;;;21.50;78.10;;;19.45;77.58;100989.94;4993420;28;19930;-68
2021/09/03 11:17:46;;;;;;;;;;;21.60;77.90;;;19.47;76.38;100992.47;5010598;28;19968;-66
2021/09/03 11:20:13;;;;;;;;;;;21.60;76.60;;;19.44;76.08;100996.56;5011233;28;19930;-66
2021/09/03 11:22:41;;;;;;;;;;;21.60;76.20;;;19.43;75.39;100986.59;5011118;28;20391;-67
2021/09/03 11:25:09;;;;;;;;;;;21.60;75.60;;;19.42;75.48;100979.41;4992791;28;20290;-66
2021/09/03 11:27:39;;;;;;;;;;;21.60;76.00;;;19.42;76.81;100982.16;5010544;28;19965;-66
2021/09/03 11:30:10;;;;;;;;;;;21.60;76.70;;;19.44;75.52;100982.75;4993349;28;19933;-67
2021/09/03 11:32:39;;;;;;;;;;;21.60;76.00;;;19.46;75.41;100982.53;5010823;28;19956;-66
2021/09/03 11:35:08;;;;;;;;;;;21.60;75.90;;;19.45;76.35;100984.44;5010144;28;19929;-66
2021/09/03 11:37:37;;;;;;;;;;;21.60;76.40;;;19.48;75.42;100978.47;5010376;28;19929;-66
2021/09/03 11:40:10;;;;;;;;;;;21.70;76.10;;;19.48;76.11;100986.75;5010446;28;19926;-65
2021/09/03 11:42:40;;;;;;;;;;;21.70;76.50;;;19.54;74.32;100984.97;4992949;28;19929;-66
2021/09/03 11:45:09;;;;;;;;;;;21.70;75.20;;;19.53;74.40;100973.09;5010079;28;19988;-66
2021/09/03 11:47:39;;;;;;;;;;;21.70;74.80;;;19.50;75.42;100979.06;5011195;28;19929;-65
2021/09/03 11:50:10;;;;;;;;;;;21.80;75.60;;;19.54;76.66;100976.69;5010961;28;20404;-66
2021/09/03 11:52:38;;;;;;;;;;;21.80;76.60;;;19.59;75.17;100975.97;5010902;28;19938;-66
2021/09/03 11:55:07;;;;;;;;;;;21.80;75.60;;;19.62;75.27;100976.34;5010630;28;20575;-66
2021/09/03 11:57:50;;;;;;;;;;;21.80;75.90;;;19.70;73.67;100966.91;4992769;28;19971;-67
2021/09/03 12:00:19;;;;;;;;;;;21.80;74.60;;;19.66;73.09;100976.72;5009789;28;19972;-67
2021/09/03 12:02:49;;;;;;;;;;;21.80;74.30;;;19.63;72.96;100971.66;5012118;28;19937;-67
2021/09/03 12:05:17;;;;;;;;;;;21.80;74.10;;;19.60;74.00;100972.16;5009468;28;19929;-66
2021/09/03 12:08:02;;;;;;;;;;;21.70;75.00;;;19.61;74.44;100973.81;4991855;28;19933;-66
2021/09/03 12:10:44;;;;;;;;;;;21.80;75.30;;;19.57;73.83;100970.69;4992254;28;20012;-65
2021/09/03 12:13:13;;;;;;;;;;;21.70;75.30;;;19.60;73.40;100969.38;5008697;28;19934;-66
2021/09/03 12:15:42;;;;;;;;;;;21.80;74.60;;;19.64;72.59;100967.84;4991387;28;19930;-66
2021/09/03 12:18:21;;;;;;;;;;;21.80;73.60;;;19.63;72.33;100955.97;5009606;28;20332;-65
2021/09/03 12:20:50;;;;;;;;;;;21.90;73.60;;;19.67;71.49;100959.09;5009332;28;19930;-66
2021/09/03 12:23:17;;;;;;;;;;;21.90;72.70;;;19.72;70.78;100945.44;5008842;28;20016;-66
2021/09/03 12:25:44;;;;;;;;;;;21.90;72.20;;;19.71;71.99;100946.50;4990923;28;20400;-66